Time;durP1;ratioP1;P1;durP2;ratioP2;P2;SDS_P1;SDS_P2;PMS_P1;PMS_P2;Temp;Humidity;BMP_temperature;BMP_pressure;BME280_temperature;BME280_humidity;BME280_pressure;Samples;Min_cycle;Max_cycle;Signal;HPM_P1;HPM_P2
2022/04/21 00:00:13;;;;;;;9.48;3.60;;;12.80;99.90;;;;;;5033474;28;20190;-84
2022/04/21 00:02:38;;;;;;;4.10;3.70;;;12.70;99.90;;;;;;5033469;28;20164;-82
2022/04/21 00:05:05;;;;;;;9.90;4.78;;;12.70;99.90;;;;;;5033966;28;20561;-85
2022/04/21 00:07:31;;;;;;;5.88;4.10;;;12.60;99.90;;;;;;5033280;28;20175;-84
2022/04/21 00:09:57;;;;;;;10.38;3.83;;;12.80;99.90;;;;;;5033349;28;20620;-77
2022/04/21 00:12:23;;;;;;;8.38;3.90;;;12.70;99.90;;;;;;5033309;28;20200;-82
2022/04/21 00:14:48;;;;;;;12.27;4.13;;;12.70;99.90;;;;;;5032774;28;20245;-84
2022/04/21 00:17:14;;;;;;;4.45;4.00;;;12.80;99.90;;;;;;5033250;28;20683;-79
2022/04/21 00:19:39;;;;;;;4.97;4.30;;;12.90;99.90;;;;;;5033212;28;20176;-85
2022/04/21 00:24:50;;;;;;;5.10;4.15;;;12.80;99.90;;;;;;5032815;28;20844;-83
2022/04/21 00:27:16;;;;;;;6.07;3.65;;;12.80;99.90;;;;;;5032881;28;20218;-80
2022/04/21 00:29:43;;;;;;;5.10;4.20;;;12.70;99.90;;;;;;5034445;28;20643;-84
2022/04/21 00:32:09;;;;;;;4.05;3.65;;;12.70;99.90;;;;;;5037294;28;20211;-83
2022/04/21 00:34:35;;;;;;;5.63;3.75;;;12.70;99.90;;;;;;5036882;28;20191;-78
2022/04/21 00:37:00;;;;;;;6.68;4.35;;;12.70;99.90;;;;;;5036749;28;20211;-85
2022/04/21 00:39:27;;;;;;;9.57;3.90;;;12.70;99.90;;;;;;5037101;28;20214;-84
2022/04/21 00:41:59;;;;;;;5.68;4.05;;;12.60;99.90;;;;;;5036710;28;20221;-79
2022/04/21 00:44:26;;;;;;;5.28;4.30;;;12.60;99.90;;;;;;5036495;28;20187;-85
2022/04/21 00:46:53;;;;;;;5.20;3.50;;;12.50;99.90;;;;;;5036561;28;20171;-76
2022/04/21 00:49:21;;;;;;;10.07;3.92;;;12.30;99.90;;;;;;5036363;28;20193;-83
2022/04/21 00:51:48;;;;;;;4.38;3.97;;;12.30;99.90;;;;;;5036254;28;20168;-79
2022/04/21 00:54:14;;;;;;;5.32;4.13;;;12.50;99.90;;;;;;5036230;28;20191;-89
2022/04/21 00:56:41;;;;;;;6.10;3.55;;;12.40;99.90;;;;;;5036457;28;20176;-83
2022/04/21 00:59:09;;;;;;;8.60;3.90;;;12.40;99.90;;;;;;5036405;28;20176;-88
2022/04/21 01:04:21;;;;;;;4.20;3.80;;;12.20;99.90;;;;;;5036689;28;20237;-83
2022/04/21 01:06:46;;;;;;;7.50;4.20;;;12.20;99.90;;;;;;5036323;28;20686;-79
2022/04/21 01:09:12;;;;;;;4.40;3.95;;;12.00;99.90;;;;;;5036185;28;20164;-79
2022/04/21 01:11:41;;;;;;;9.23;3.83;;;11.90;99.90;;;;;;5036153;28;20621;-79
2022/04/21 01:14:07;;;;;;;5.82;4.30;;;12.00;99.90;;;;;;5035662;28;20203;-87
2022/04/21 01:16:33;;;;;;;7.40;3.88;;;12.00;99.90;;;;;;5036205;28;20168;-78
2022/04/21 01:18:59;;;;;;;5.53;3.78;;;11.80;99.90;;;;;;5036008;28;20521;-78
2022/04/21 01:21:24;;;;;;;4.35;3.83;;;11.90;99.90;;;;;;5034719;28;20168;-87
2022/04/21 01:23:50;;;;;;;5.32;4.05;;;11.80;99.90;;;;;;5035803;28;20275;-82
2022/04/21 01:26:17;;;;;;;6.50;4.43;;;11.80;99.90;;;;;;5035915;28;20247;-82
2022/04/21 01:28:45;;;;;;;6.55;4.57;;;11.90;99.90;;;;;;5036099;28;20282;-80
2022/04/21 01:31:11;;;;;;;11.90;4.35;;;11.90;99.90;;;;;;5036297;28;20163;-84
2022/04/21 01:33:37;;;;;;;5.53;3.88;;;11.90;99.90;;;;;;5035803;28;20209;-82
2022/04/21 01:36:04;;;;;;;10.95;4.88;;;11.90;99.90;;;;;;5035825;28;20890;-88
2022/04/21 01:41:14;;;;;;;9.45;4.30;;;11.80;99.90;;;;;;5035415;28;20307;-81
2022/04/21 01:43:43;;;;;;;5.65;5.07;;;11.80;99.90;;;;;;5035667;28;20672;-80
2022/04/21 01:46:09;;;;;;;6.20;4.63;;;11.80;99.90;;;;;;5035723;28;20263;-86
2022/04/21 01:48:35;;;;;;;5.97;4.22;;;11.70;99.90;;;;;;5035979;28;20164;-87
2022/04/21 01:51:02;;;;;;;5.70;4.15;;;11.60;99.90;;;;;;5035665;28;20202;-84
2022/04/21 01:53:28;;;;;;;7.70;4.30;;;11.60;99.90;;;;;;5035394;28;20234;-81
2022/04/21 01:55:53;;;;;;;11.35;4.35;;;11.60;99.90;;;;;;5035450;28;20230;-85
2022/04/21 01:58:19;;;;;;;15.63;5.03;;;11.70;99.90;;;;;;5035164;28;20242;-81
2022/04/21 02:00:44;;;;;;;9.85;4.43;;;11.60;99.90;;;;;;5050651;28;20673;-81
2022/04/21 02:03:10;;;;;;;8.52;4.60;;;11.50;99.90;;;;;;5035196;28;20168;-86
2022/04/21 02:05:35;;;;;;;5.10;3.97;;;11.40;99.90;;;;;;5035003;28;20160;-82
2022/04/21 02:08:02;;;;;;;5.32;4.20;;;11.50;99.90;;;;;;5035191;28;20171;-84
2022/04/21 02:10:30;;;;;;;7.10;4.70;;;11.50;99.90;;;;;;5035198;28;20164;-80
2022/04/21 02:12:56;;;;;;;4.35;3.85;;;11.40;99.90;;;;;;5034933;28;20234;-83
2022/04/21 02:15:23;;;;;;;6.18;5.57;;;11.30;99.90;;;;;;5034793;28;20195;-82
2022/04/21 02:17:49;;;;;;;8.55;5.20;;;11.30;99.90;;;;;;5034725;28;20200;-78
2022/04/21 02:20:16;;;;;;;10.50;4.82;;;11.40;99.90;;;;;;5034915;28;20234;-89
2022/04/21 02:22:46;;;;;;;7.00;5.15;;;11.40;99.90;;;;;;5035082;28;20545;-86
2022/04/21 02:25:14;;;;;;;5.18;4.00;;;11.20;99.90;;;;;;5034365;28;20180;-82
2022/04/21 02:27:45;;;;;;;4.93;4.47;;;11.10;99.90;;;;;;5033472;28;20206;-85
2022/04/21 02:30:13;;;;;;;5.18;4.45;;;11.10;99.90;;;;;;5034652;28;20160;-82
2022/04/21 02:32:39;;;;;;;10.23;5.47;;;11.00;99.90;;;;;;5035082;28;20258;-78
2022/04/21 02:35:07;;;;;;;10.60;4.60;;;11.00;99.90;;;;;;5034299;28;20207;-87
2022/04/21 02:37:40;;;;;;;5.20;4.40;;;11.00;99.90;;;;;;5034271;28;20199;-81
2022/04/21 02:40:07;;;;;;;5.30;4.30;;;11.00;99.90;;;;;;5034591;28;20192;-79
2022/04/21 02:42:33;;;;;;;6.10;4.50;;;11.00;99.90;;;;;;5034971;28;20613;-87
2022/04/21 02:44:59;;;;;;;8.10;4.60;;;11.10;99.90;;;;;;5037528;28;20186;-76
2022/04/21 02:47:25;;;;;;;5.53;4.80;;;11.10;99.90;;;;;;5046324;28;20160;-79
2022/04/21 02:49:52;;;;;;;7.50;5.28;;;11.20;99.90;;;;;;5042664;28;20226;-79
2022/04/21 02:52:18;;;;;;;5.20;4.70;;;11.20;99.90;;;;;;5038929;28;20172;-81
2022/04/21 02:57:30;;;;;;;11.88;5.00;;;11.10;99.90;;;;;;5034046;28;20214;-82
2022/04/21 03:00:02;;;;;;;7.25;5.35;;;11.10;99.90;;;;;;5034075;28;20163;-85
2022/04/21 03:02:27;;;;;;;6.15;4.40;;;11.00;99.90;;;;;;5033848;28;20302;-82
2022/04/21 03:04:54;;;;;;;20.30;4.63;;;10.90;99.90;;;;;;5033712;28;20207;-81
2022/04/21 03:07:22;;;;;;;5.25;4.30;;;11.00;99.90;;;;;;5034057;28;20523;-81
2022/04/21 03:09:48;;;;;;;8.75;5.20;;;11.00;99.90;;;;;;5033816;28;20245;-78
2022/04/21 03:12:13;;;;;;;5.35;4.57;;;11.00;99.90;;;;;;5034111;28;20666;-76
2022/04/21 03:14:40;;;;;;;11.35;4.63;;;10.90;99.90;;;;;;5033609;28;20203;-83
2022/04/21 03:17:10;;;;;;;5.72;4.70;;;10.80;99.90;;;;;;5033675;28;20212;-80
2022/04/21 03:19:37;;;;;;;10.30;5.00;;;10.70;99.90;;;;;;5034005;28;20182;-82
2022/04/21 03:24:48;;;;;;;10.02;4.90;;;10.70;99.90;;;;;;5033818;28;20233;-87
2022/04/21 03:27:14;;;;;;;6.43;5.07;;;10.70;99.90;;;;;;5033675;28;20176;-80
2022/04/21 03:29:40;;;;;;;4.72;4.22;;;10.80;99.90;;;;;;5033706;28;20199;-79
2022/04/21 03:32:13;;;;;;;9.82;4.80;;;10.70;99.90;;;;;;5033003;28;20172;-84
2022/04/21 03:34:40;;;;;;;6.43;5.47;;;10.70;99.90;;;;;;5033753;28;20262;-81
2022/04/21 03:37:14;;;;;;;8.32;5.15;;;10.60;99.90;;;;;;5033726;28;20183;-83
2022/04/21 03:39:41;;;;;;;7.65;4.45;;;10.50;99.90;;;;;;5033255;28;20543;-85
2022/04/21 03:42:16;;;;;;;10.90;5.68;;;10.50;99.90;;;;;;5033919;28;20187;-78
2022/04/21 03:44:42;;;;;;;10.23;5.78;;;10.40;99.90;;;;;;5048993;28;20194;-80
2022/04/21 03:47:08;;;;;;;8.80;5.45;;;10.40;99.90;;;;;;5033441;28;20172;-88
2022/04/21 03:49:34;;;;;;;6.63;4.88;;;10.50;99.90;;;;;;5033166;28;20250;-90
2022/04/21 03:51:59;;;;;;;6.88;5.80;;;10.50;99.90;;;;;;5033385;28;20184;-84
2022/04/21 03:54:26;;;;;;;5.80;5.20;;;10.50;99.90;;;;;;5033118;28;20219;-84
2022/04/21 03:56:53;;;;;;;8.10;5.22;;;10.60;99.90;;;;;;5033367;28;20682;-80
2022/04/21 03:59:20;;;;;;;6.70;5.30;;;10.80;99.90;;;;;;5033439;28;20624;-80
2022/04/21 04:01:46;;;;;;;5.38;4.60;;;10.70;99.90;;;;;;5033208;28;20163;-78
2022/04/21 04:04:12;;;;;;;5.93;5.32;;;10.70;99.90;;;;;;5033380;28;20195;-84
2022/04/21 04:12:08;;;;;;;5.10;4.60;;;10.60;99.90;;;;;;5033509;28;20663;-82
2022/04/21 04:14:34;;;;;;;9.80;6.05;;;10.60;99.90;;;;;;5033319;28;20215;-87
2022/04/21 04:17:00;;;;;;;9.32;5.47;;;10.40;99.90;;;;;;5033071;28;20202;-76
2022/04/21 04:19:26;;;;;;;13.48;5.43;;;10.20;99.90;;;;;;5033109;28;20214;-86
2022/04/21 04:21:51;;;;;;;4.97;4.45;;;10.30;99.90;;;;;;5033182;28;20183;-75
2022/04/21 04:24:17;;;;;;;6.03;5.43;;;10.50;99.90;;;;;;5048321;28;20188;-78
2022/04/21 04:26:43;;;;;;;5.57;5.05;;;10.20;99.90;;;;;;5033064;28;20164;-81
2022/04/21 04:29:09;;;;;;;11.23;5.28;;;10.10;99.90;;;;;;5032893;28;20222;-80
2022/04/21 04:31:36;;;;;;;9.43;5.32;;;10.10;99.90;;;;;;5032955;28;20172;-75
2022/04/21 04:34:02;;;;;;;6.07;5.55;;;10.10;99.90;;;;;;5032828;28;20194;-85
2022/04/21 04:36:28;;;;;;;13.15;4.95;;;10.00;99.90;;;;;;5031528;28;20160;-83
2022/04/21 04:38:54;;;;;;;8.75;5.75;;;10.00;99.90;;;;;;5032559;28;20298;-79
2022/04/21 04:44:04;;;;;;;6.53;4.68;;;10.20;99.90;;;;;;5032755;28;20206;-80
2022/04/21 04:46:37;;;;;;;11.05;5.38;;;10.40;99.90;;;;;;5032830;28;20527;-83
2022/04/21 04:49:07;;;;;;;6.88;5.38;;;10.40;99.90;;;;;;5032907;28;20253;-78
2022/04/21 04:51:43;;;;;;;6.13;4.97;;;10.40;99.90;;;;;;5032733;28;20206;-82
2022/04/21 04:54:11;;;;;;;5.47;4.97;;;10.20;99.90;;;;;;5032782;28;20184;-83
2022/04/21 04:56:38;;;;;;;6.28;5.45;;;10.20;99.90;;;;;;5032524;28;20168;-87
2022/04/21 04:59:04;;;;;;;8.27;5.78;;;10.10;99.90;;;;;;5032215;28;20215;-84
2022/04/21 05:01:33;;;;;;;6.47;5.65;;;10.10;99.90;;;;;;5032857;28;20251;-79
2022/04/21 05:04:10;;;;;;;12.70;6.13;;;10.00;99.90;;;;;;5032401;28;20176;-80
2022/04/21 05:06:44;;;;;;;6.65;5.20;;;10.00;99.90;;;;;;5033447;28;20171;-83
2022/04/21 05:09:11;;;;;;;7.38;5.18;;;10.20;99.90;;;;;;5032939;28;20172;-81
2022/04/21 05:11:39;;;;;;;6.13;4.90;;;10.20;99.90;;;;;;5032428;28;20226;-88
2022/04/21 05:14:07;;;;;;;14.80;5.68;;;10.20;99.90;;;;;;5032538;28;20203;-81
2022/04/21 05:16:33;;;;;;;10.18;5.20;;;10.30;99.90;;;;;;5035916;28;20213;-77
2022/04/21 05:18:59;;;;;;;5.20;4.70;;;10.10;99.90;;;;;;5035883;28;20203;-85
2022/04/21 05:21:25;;;;;;;7.28;5.43;;;10.20;99.90;;;;;;5035945;28;20171;-79
2022/04/21 05:23:58;;;;;;;6.22;5.63;;;10.30;99.90;;;;;;5035357;28;20574;-76
2022/04/21 05:26:25;;;;;;;11.40;6.55;;;10.20;99.90;;;;;;5035340;28;20164;-80
2022/04/21 05:28:51;;;;;;;9.52;5.78;;;10.40;99.90;;;;;;5035370;28;20548;-78
2022/04/21 05:31:17;;;;;;;20.65;5.13;;;10.40;99.90;;;;;;5035637;28;20624;-83
2022/04/21 05:33:43;;;;;;;16.23;7.10;;;10.40;99.90;;;;;;5035661;28;20270;-84
2022/04/21 05:36:09;;;;;;;6.10;5.35;;;10.50;99.90;;;;;;5036167;28;20632;-88
2022/04/21 05:38:35;;;;;;;8.40;5.05;;;10.50;99.90;;;;;;5035890;28;20215;-81
2022/04/21 05:41:02;;;;;;;7.18;4.68;;;10.40;99.90;;;;;;5036005;28;20203;-86
2022/04/21 05:43:39;;;;;;;7.07;5.47;;;10.40;99.90;;;;;;5036045;28;20195;-75
2022/04/21 05:46:05;;;;;;;11.07;4.68;;;10.60;99.90;;;;;;5036508;28;20563;-81
2022/04/21 05:48:31;;;;;;;7.80;5.65;;;10.60;99.90;;;;;;5035871;28;20160;-78
2022/04/21 05:50:57;;;;;;;5.95;4.78;;;10.70;99.90;;;;;;5036992;28;20182;-78
2022/04/21 05:53:26;;;;;;;6.47;5.53;;;10.70;99.90;;;;;;5039136;28;20164;-81
2022/04/21 05:55:55;;;;;;;8.63;5.25;;;10.60;99.90;;;;;;5037778;28;20175;-90
2022/04/21 05:58:22;;;;;;;9.18;5.50;;;10.70;99.90;;;;;;5035457;28;20208;-86
2022/04/21 06:00:53;;;;;;;6.22;5.28;;;10.70;99.90;;;;;;5036644;28;20199;-84
2022/04/21 06:03:21;;;;;;;12.30;5.22;;;10.90;99.90;;;;;;5036040;28;20175;-81
2022/04/21 06:05:47;;;;;;;6.53;5.30;;;10.90;99.90;;;;;;5036263;28;20168;-80
2022/04/21 06:08:13;;;;;;;13.07;5.13;;;10.90;99.90;;;;;;5038464;28;20354;-77
2022/04/21 06:10:39;;;;;;;13.07;5.07;;;10.90;99.90;;;;;;5038548;28;20195;-83
2022/04/21 06:13:04;;;;;;;6.75;4.95;;;11.00;99.90;;;;;;5041231;28;20607;-79
2022/04/21 06:15:30;;;;;;;11.35;4.95;;;11.00;99.90;;;;;;5052684;28;20278;-80
2022/04/21 06:17:59;;;;;;;8.50;5.47;;;11.10;99.90;;;;;;5034644;28;20258;-83
2022/04/21 06:20:26;;;;;;;10.43;5.60;;;11.20;99.90;;;;;;5034057;28;20639;-76
2022/04/21 06:22:52;;;;;;;13.73;4.97;;;11.30;99.90;;;;;;5033698;28;20254;-79
2022/04/21 06:25:18;;;;;;;10.48;5.72;;;11.20;99.90;;;;;;5034370;28;20211;-78
2022/04/21 06:27:43;;;;;;;5.70;5.28;;;11.40;99.90;;;;;;5031718;28;20634;-80
2022/04/21 06:30:10;;;;;;;8.93;4.57;;;11.50;99.90;;;;;;5033925;28;20160;-83
2022/04/21 06:32:35;;;;;;;11.13;5.18;;;11.60;99.90;;;;;;5033838;28;20493;-80
2022/04/21 06:35:01;;;;;;;7.07;4.63;;;11.60;99.90;;;;;;5033293;28;20279;-78
2022/04/21 06:37:26;;;;;;;11.90;5.28;;;11.70;99.90;;;;;;5033138;28;20207;-84
2022/04/21 06:39:52;;;;;;;9.77;5.88;;;11.80;99.90;;;;;;5033410;28;20168;-83
2022/04/21 06:42:17;;;;;;;13.57;5.38;;;12.00;99.90;;;;;;5033903;28;20176;-83
2022/04/21 06:50:12;;;;;;;9.40;5.75;;;11.80;99.90;;;;;;5036874;28;20175;-81
2022/04/21 06:52:37;;;;;;;18.45;6.78;;;11.80;99.90;;;;;;5034679;28;20551;-75
2022/04/21 06:55:04;;;;;;;15.90;6.63;;;11.90;99.90;;;;;;5034550;28;20223;-80
2022/04/21 06:57:29;;;;;;;6.68;5.75;;;11.70;99.90;;;;;;5035433;28;20305;-81
2022/04/21 06:59:55;;;;;;;9.02;5.65;;;11.70;99.90;;;;;;5049775;28;20254;-87
2022/04/21 07:02:31;;;;;;;11.50;6.13;;;11.80;99.90;;;;;;5034421;28;20192;-76
2022/04/21 07:05:13;;;;;;;12.48;5.88;;;12.00;99.90;;;;;;5034293;28;20576;-77
2022/04/21 07:07:40;;;;;;;15.80;6.50;;;12.30;99.90;;;;;;5050060;28;20759;-84
2022/04/21 07:10:07;;;;;;;9.93;5.05;;;12.30;99.90;;;;;;5036822;28;20218;-90
2022/04/21 07:12:34;;;;;;;6.25;5.47;;;12.50;99.90;;;;;;5035070;28;20168;-93
2022/04/21 07:15:03;;;;;;;7.15;5.40;;;12.60;99.90;;;;;;5033130;28;20207;-92
2022/04/21 07:17:29;;;;;;;7.22;5.50;;;12.80;99.90;;;;;;5034546;28;20230;-90
2022/04/21 07:19:55;;;;;;;15.75;5.68;;;12.60;99.90;;;;;;5034380;28;20243;-82
2022/04/21 07:22:26;;;;;;;14.68;6.05;;;12.70;99.90;;;;;;5033450;28;20612;-78
2022/04/21 07:24:56;;;;;;;6.35;4.90;;;12.70;99.90;;;;;;5024876;28;20204;-76
2022/04/21 07:27:23;;;;;;;9.02;4.70;;;12.60;99.90;;;;;;5030062;28;20687;-76
2022/04/21 07:29:49;;;;;;;8.50;5.20;;;12.70;99.90;;;;;;5031974;28;20164;-80
2022/04/21 07:32:16;;;;;;;7.47;4.72;;;12.70;99.90;;;;;;5043921;28;20191;-78
2022/04/21 07:34:41;;;;;;;11.98;6.13;;;12.80;99.90;;;;;;5027845;28;20803;-89
2022/04/21 07:37:10;;;;;;;11.85;4.90;;;13.00;99.90;;;;;;5026157;28;20200;-77
2022/04/21 07:39:42;;;;;;;8.85;4.55;;;13.10;99.90;;;;;;5011403;28;20535;-81
2022/04/21 07:42:09;;;;;;;9.02;4.60;;;13.20;99.90;;;;;;5011719;28;20157;-77
2022/04/21 07:44:38;;;;;;;17.00;5.90;;;13.20;99.90;;;;;;5027059;28;20197;-77
2022/04/21 07:47:05;;;;;;;11.02;5.40;;;13.40;99.90;;;;;;5012189;28;20244;-77
2022/04/21 07:49:46;;;;;;;10.40;4.50;;;13.50;99.90;;;;;;5011916;28;20172;-78
2022/04/21 07:55:18;;;;;;;5.50;4.53;;;13.60;99.90;;;;;;5012036;28;20226;-77
2022/04/21 07:57:45;;;;;;;14.30;3.90;;;13.70;99.90;;;;;;5011565;28;20564;-77
2022/04/21 08:00:13;;;;;;;8.63;4.40;;;13.70;99.90;;;;;;5026968;28;20204;-78
2022/04/21 08:02:41;;;;;;;6.95;4.30;;;13.90;99.90;;;;;;5011198;28;20175;-77
2022/04/21 08:05:08;;;;;;;8.70;3.97;;;14.10;99.90;;;;;;5011193;28;20234;-77
2022/04/21 08:07:34;;;;;;;9.05;3.55;;;14.30;99.90;;;;;;5022646;28;20171;-78
2022/04/21 08:10:02;;;;;;;12.38;4.35;;;14.40;99.90;;;;;;5031671;28;20294;-78
2022/04/21 08:12:27;;;;;;;6.93;3.95;;;14.50;99.90;;;;;;5031247;28;20624;-82
2022/04/21 08:14:54;;;;;;;8.10;4.70;;;14.50;99.90;;;;;;5031565;28;20218;-81
2022/04/21 08:17:19;;;;;;;7.18;3.50;;;14.60;99.90;;;;;;5030830;28;20199;-76
2022/04/21 08:19:45;;;;;;;7.35;3.97;;;14.60;99.90;;;;;;5031182;28;20178;-76
2022/04/21 08:22:10;;;;;;;6.47;3.30;;;14.70;99.90;;;;;;5031208;28;20164;-77
2022/04/21 08:32:49;;;;;;;7.55;3.47;;;15.30;99.90;;;;;;5032408;28;20728;-76
2022/04/21 08:35:14;;;;;;;8.85;3.58;;;15.40;99.90;;;;;;5031736;28;20187;-78
2022/04/21 08:37:46;;;;;;;9.63;3.08;;;15.30;99.90;;;;;;5030682;28;20200;-78
2022/04/21 08:40:12;;;;;;;5.55;2.83;;;15.30;99.90;;;;;;5031676;28;20195;-77
2022/04/21 08:42:40;;;;;;;6.07;3.13;;;15.40;99.90;;;;;;5030648;28;20305;-77
2022/04/21 08:45:07;;;;;;;13.98;2.97;;;15.60;99.90;;;;;;5046047;28;20196;-77
2022/04/21 08:47:33;;;;;;;13.60;4.05;;;15.60;99.90;;;;;;5030513;28;20225;-78
2022/04/21 08:50:12;;;;;;;4.32;2.92;;;15.80;99.90;;;;;;5046133;28;20543;-76
2022/04/21 08:52:39;;;;;;;5.78;3.08;;;15.70;99.90;;;;;;5049516;28;20183;-82
2022/04/21 08:55:05;;;;;;;11.48;2.55;;;15.80;99.90;;;;;;5034826;28;20184;-78
2022/04/21 08:57:32;;;;;;;4.90;2.35;;;15.70;99.90;;;;;;5050374;28;20698;-79
2022/04/21 08:59:58;;;;;;;8.25;2.88;;;15.80;99.90;;;;;;5035110;28;20179;-79
2022/04/21 09:02:38;;;;;;;3.78;2.35;;;15.90;99.90;;;;;;5035491;28;20164;-79
2022/04/21 09:05:05;;;;;;;8.23;2.33;;;15.80;99.90;;;;;;5050553;28;20194;-79
2022/04/21 09:07:30;;;;;;;6.00;2.15;;;16.00;99.90;;;;;;5035021;28;20632;-79
2022/04/21 09:10:10;;;;;;;8.60;3.25;;;16.20;99.90;;;;;;5034694;28;20246;-78
2022/04/21 09:12:55;;;;;;;2.67;2.47;;;16.30;99.90;;;;;;5034565;28;20163;-78
2022/04/21 09:15:23;;;;;;;14.95;3.10;;;16.30;99.90;;;;;;5034955;28;20199;-79
2022/04/21 09:17:57;;;;;;;3.72;2.55;;;16.30;99.90;;;;;;5034920;28;20203;-80
2022/04/21 09:20:33;;;;;;;9.52;2.45;;;16.30;99.90;;;;;;5049677;28;20269;-79
2022/04/21 09:23:00;;;;;;;10.40;2.25;;;16.50;99.90;;;;;;5034368;28;20214;-78
2022/04/21 09:25:28;;;;;;;7.55;2.53;;;16.60;99.90;;;;;;5034854;28;20204;-77
2022/04/21 09:27:55;;;;;;;6.75;2.25;;;16.50;99.90;;;;;;5034615;28;20254;-79
2022/04/21 09:30:21;;;;;;;10.57;2.92;;;16.60;99.90;;;;;;5033014;28;20172;-78
2022/04/21 09:33:00;;;;;;;3.15;2.85;;;16.60;99.90;;;;;;5034124;28;20171;-80
2022/04/21 09:35:28;;;;;;;3.85;2.95;;;16.40;99.90;;;;;;5034955;28;20191;-85
2022/04/21 09:37:56;;;;;;;6.93;2.70;;;16.50;99.90;;;;;;5035684;28;20199;-80
2022/04/21 09:40:23;;;;;;;10.82;3.65;;;16.60;99.90;;;;;;5049583;28;20175;-80
2022/04/21 09:42:54;;;;;;;4.07;3.15;;;16.60;99.90;;;;;;5034293;28;20252;-79
2022/04/21 09:48:28;;;;;;;3.33;2.92;;;16.60;99.90;;;;;;5034162;28;20252;-78
2022/04/21 09:50:54;;;;;;;3.88;2.45;;;16.80;99.90;;;;;;5034281;28;20207;-77
2022/04/21 09:53:23;;;;;;;4.10;2.42;;;16.80;99.90;;;;;;5033712;28;20698;-78
2022/04/21 09:55:49;;;;;;;11.23;3.05;;;16.70;99.90;;;;;;5034165;28;20697;-76
2022/04/21 09:58:16;;;;;;;5.15;2.35;;;16.90;99.90;;;;;;5034172;28;20219;-82
2022/04/21 10:00:42;;;;;;;5.75;2.75;;;17.00;99.90;;;;;;5048110;28;20562;-76
2022/04/21 10:03:09;;;;;;;9.40;3.08;;;17.20;99.90;;;;;;5049237;28;20577;-77
2022/04/21 10:05:37;;;;;;;8.40;2.63;;;17.20;99.90;;;;;;5034511;28;20171;-77
2022/04/21 10:08:05;;;;;;;7.25;2.83;;;17.30;99.90;;;;;;5034053;28;20168;-78
2022/04/21 10:10:32;;;;;;;8.43;3.20;;;17.40;99.90;;;;;;5033048;28;20180;-78
2022/04/21 10:13:00;;;;;;;3.53;2.88;;;17.70;99.90;;;;;;5033366;28;20243;-79
2022/04/21 10:15:26;;;;;;;2.75;2.42;;;17.60;99.90;;;;;;5041256;28;20192;-80
2022/04/21 10:17:52;;;;;;;4.97;3.13;;;17.50;99.90;;;;;;5029299;28;20243;-78
2022/04/21 10:20:24;;;;;;;6.40;3.78;;;17.60;99.90;;;;;;5015763;28;20168;-79
2022/04/21 10:22:52;;;;;;;3.35;2.90;;;17.60;99.90;;;;;;5016054;28;20533;-78
2022/04/21 10:25:19;;;;;;;2.63;2.33;;;17.60;99.90;;;;;;5018601;28;20232;-82
2022/04/21 10:27:47;;;;;;;3.35;3.05;;;17.60;99.90;;;;;;5017971;28;20247;-77
2022/04/21 10:30:34;;;;;;;3.67;2.60;;;17.40;99.90;;;;;;5033799;28;20267;-78
2022/04/21 10:33:01;;;;;;;4.82;2.30;;;17.20;99.90;;;;;;5029026;28;20180;-82
2022/04/21 10:35:36;;;;;;;5.35;2.50;;;17.10;99.90;;;;;;5029192;28;20192;-87
2022/04/21 10:38:31;;;;;;;8.55;3.35;;;17.20;99.90;;;;;;5017530;28;20219;-77
2022/04/21 10:41:07;;;;;;;16.48;3.47;;;17.30;99.90;;;;;;5007365;28;20188;-77
2022/04/21 10:43:50;;;;;;;6.18;2.97;;;17.40;99.90;;;;;;5016531;28;20195;-77
2022/04/21 10:46:31;;;;;;;3.30;3.00;;;17.50;99.90;;;;;;5015099;28;20632;-77
2022/04/21 10:48:59;;;;;;;6.35;3.40;;;17.40;99.90;;;;;;5013432;28;20160;-79
2022/04/21 10:57:16;;;;;;;13.52;2.88;;;17.70;99.90;;;;;;5014188;28;20183;-78
2022/04/21 10:59:58;;;;;;;6.47;3.05;;;17.70;99.00;;;;;;5013780;28;20249;-77
2022/04/21 11:02:46;;;;;;;3.45;2.88;;;17.70;99.50;;;;;;5015021;28;20180;-85
2022/04/21 11:05:26;;;;;;;6.85;2.80;;;17.90;98.80;;;;;;5013827;28;20196;-80
2022/04/21 11:07:56;;;;;;;8.30;2.45;;;18.00;98.60;;;;;;5020566;28;20640;-79
2022/04/21 11:10:29;;;;;;;12.18;2.60;;;18.00;98.60;;;;;;5039870;28;20186;-77
2022/04/21 11:12:54;;;;;;;2.83;2.15;;;18.00;98.00;;;;;;5035903;28;20178;-77
2022/04/21 11:15:47;;;;;;;2.63;2.42;;;18.00;98.10;;;;;;5037046;28;20183;-78
2022/04/21 11:18:15;;;;;;;6.82;2.50;;;18.00;98.20;;;;;;5033338;28;20211;-78
2022/04/21 11:20:51;;;;;;;7.50;2.60;;;17.90;98.00;;;;;;5032819;28;20198;-80
2022/04/21 11:23:31;;;;;;;6.18;2.53;;;18.00;97.80;;;;;;5030661;28;20180;-80
2022/04/21 11:26:08;;;;;;;10.88;3.15;;;18.00;97.90;;;;;;5030662;28;20755;-80
2022/04/21 11:28:34;;;;;;;5.78;2.83;;;17.90;97.60;;;;;;5029588;28;20202;-78
2022/04/21 11:31:02;;;;;;;4.20;3.40;;;17.80;97.70;;;;;;5020095;28;20202;-78
2022/04/21 11:33:28;;;;;;;3.70;2.67;;;17.70;97.80;;;;;;5046961;28;20263;-78
2022/04/21 11:36:05;;;;;;;15.95;2.53;;;17.80;96.60;;;;;;5032686;28;20218;-78
2022/04/21 11:38:34;;;;;;;3.85;2.83;;;17.90;96.50;;;;;;5031651;28;20280;-78
2022/04/21 11:41:02;;;;;;;10.20;2.35;;;17.80;97.00;;;;;;5031646;28;20218;-78
2022/04/21 11:43:28;;;;;;;13.45;2.38;;;18.00;97.40;;;;;;5031526;28;20184;-79
2022/04/21 11:45:59;;;;;;;13.85;2.90;;;18.20;95.60;;;;;;5032029;28;20172;-78
2022/04/21 11:48:40;;;;;;;5.45;2.78;;;18.20;95.60;;;;;;5031035;28;20175;-80
2022/04/21 11:51:07;;;;;;;2.50;1.70;;;18.30;95.80;;;;;;5025588;28;20179;-76
2022/04/21 11:53:36;;;;;;;8.20;2.80;;;18.10;95.40;;;;;;5011583;28;20188;-77
2022/04/21 11:56:03;;;;;;;4.47;3.10;;;18.10;95.80;;;;;;5012157;28;20252;-77
2022/04/21 11:58:34;;;;;;;7.18;2.53;;;18.30;96.00;;;;;;5011571;28;20243;-87
2022/04/21 12:06:48;;;;;;;4.60;2.28;;;18.70;94.20;;;;;;5021404;28;20182;-84
2022/04/21 12:09:16;;;;;;;3.90;2.40;;;18.50;94.70;;;;;;5048035;28;20191;-83
2022/04/21 12:12:03;;;;;;;3.08;2.65;;;18.50;95.40;;;;;;5018888;28;20661;-83
2022/04/21 12:14:30;;;;;;;3.90;2.50;;;18.50;95.10;;;;;;5010780;28;20290;-82
2022/04/21 12:17:00;;;;;;;3.55;2.53;;;18.50;95.50;;;;;;5012457;28;20168;-83
2022/04/21 12:19:40;;;;;;;6.15;2.40;;;18.50;95.50;;;;;;5027724;28;20638;-82
2022/04/21 12:22:16;;;;;;;6.70;2.40;;;18.30;94.90;;;;;;5010320;28;20168;-82
2022/04/21 12:24:55;;;;;;;3.67;2.30;;;18.20;94.80;;;;;;5027360;28;20215;-83
2022/04/21 12:27:26;;;;;;;2.28;2.08;;;18.20;94.60;;;;;;5031521;28;20180;-83
2022/04/21 12:30:01;;;;;;;14.68;2.42;;;18.30;93.80;;;;;;5016108;28;20719;-80
2022/04/21 12:32:29;;;;;;;10.48;2.00;;;18.40;93.30;;;;;;5035460;28;20179;-81
2022/04/21 12:34:58;;;;;;;2.33;1.98;;;18.40;93.00;;;;;;5036815;28;20211;-80
2022/04/21 12:37:27;;;;;;;5.80;2.20;;;18.40;92.90;;;;;;5053718;28;20265;-81
2022/04/21 12:39:54;;;;;;;4.13;1.85;;;18.60;93.30;;;;;;5041801;28;20172;-79
2022/04/21 12:42:22;;;;;;;2.60;1.67;;;18.50;92.90;;;;;;5056223;28;20167;-81
2022/04/21 12:44:50;;;;;;;14.20;2.30;;;18.70;93.30;;;;;;5036153;28;20910;-79
2022/04/21 12:47:18;;;;;;;1.98;1.83;;;18.80;92.60;;;;;;5051352;28;20168;-79
2022/04/21 12:50:01;;;;;;;1.98;1.77;;;18.90;92.90;;;;;;5051753;28;20175;-80
2022/04/21 12:52:41;;;;;;;5.72;2.08;;;19.00;93.20;;;;;;5051618;28;20294;-79
2022/04/21 12:55:07;;;;;;;3.00;2.28;;;19.00;94.20;;;;;;5052185;28;20188;-79
2022/04/21 12:57:33;;;;;;;13.15;2.40;;;19.10;93.30;;;;;;5034665;28;20279;-79
2022/04/21 12:59:59;;;;;;;6.63;2.03;;;19.10;93.10;;;;;;5050955;28;20174;-78
2022/04/21 13:02:25;;;;;;;10.00;2.28;;;19.00;91.90;;;;;;5035006;28;20180;-78
2022/04/21 13:04:52;;;;;;;9.45;2.20;;;18.90;91.80;;;;;;5051552;28;20219;-78
2022/04/21 13:07:18;;;;;;;2.58;1.80;;;19.00;92.40;;;;;;5051944;28;20168;-80
2022/04/21 13:09:44;;;;;;;1.88;1.67;;;19.00;91.50;;;;;;5037717;28;20174;-78
2022/04/21 13:12:10;;;;;;;1.77;1.45;;;19.10;91.50;;;;;;5036217;28;20172;-79
2022/04/21 13:14:35;;;;;;;3.75;1.95;;;19.10;91.20;;;;;;5034211;28;20667;-79
2022/04/21 13:17:01;;;;;;;2.72;1.88;;;18.90;91.20;;;;;;5049713;28;20524;-81
2022/04/21 13:19:26;;;;;;;10.52;2.30;;;18.80;91.30;;;;;;5050121;28;20172;-81
2022/04/21 13:21:52;;;;;;;2.20;2.00;;;19.00;90.40;;;;;;5035174;28;20171;-81
2022/04/21 13:24:21;;;;;;;7.22;2.22;;;18.90;90.30;;;;;;5049892;28;20196;-81
2022/04/21 13:26:47;;;;;;;1.83;1.70;;;18.90;90.90;;;;;;5035352;28;20171;-80
2022/04/21 13:29:13;;;;;;;2.90;1.65;;;19.00;90.00;;;;;;5050014;28;20160;-81
2022/04/21 13:34:23;;;;;;;4.05;1.75;;;19.00;90.20;;;;;;5035022;28;20202;-82
2022/04/21 13:36:49;;;;;;;10.85;1.67;;;19.20;89.10;;;;;;5034204;28;20168;-82
2022/04/21 13:39:15;;;;;;;3.03;1.90;;;19.10;86.50;;;;;;5050636;28;20318;-82
2022/04/21 13:41:42;;;;;;;3.35;1.80;;;19.10;87.20;;;;;;5050681;28;20621;-85
2022/04/21 13:44:08;;;;;;;5.13;2.25;;;19.00;88.30;;;;;;5051085;28;20191;-84
2022/04/21 13:46:35;;;;;;;3.97;1.60;;;19.10;88.60;;;;;;5018162;28;20182;-89